createdAt,value
2023-05-06T00:04:22.204Z,2.52
2023-05-06T00:09:25.125Z,2.45
2023-05-06T00:14:28.070Z,2.41
2023-05-06T00:19:31.344Z,2.39
2023-05-06T00:24:34.049Z,2.34
2023-05-06T00:29:36.851Z,2.31
2023-05-06T00:34:39.713Z,2.32
2023-05-06T00:39:42.561Z,2.34
2023-05-06T00:44:45.403Z,2.40
2023-05-06T00:49:48.420Z,2.41
2023-05-06T00:54:51.378Z,2.34
2023-05-06T00:59:54.693Z,2.26
2023-05-06T01:04:57.455Z,2.22
2023-05-06T01:10:00.341Z,2.19
2023-05-06T01:15:12.005Z,2.16
2023-05-06T01:20:15.570Z,2.10
2023-05-06T01:25:22.443Z,2.01
2023-05-06T01:30:31.871Z,1.90
2023-05-06T01:35:53.665Z,1.81
2023-05-06T01:40:58.475Z,1.70
2023-05-06T01:46:02.512Z,1.59
2023-05-06T01:51:05.639Z,1.49
2023-05-06T01:56:09.258Z,1.43
2023-05-06T02:01:12.097Z,1.34
2023-05-06T02:06:14.908Z,1.23
2023-05-06T02:11:17.883Z,1.09
2023-05-06T02:16:22.160Z,0.98
2023-05-06T02:21:25.087Z,2.83
2023-05-06T02:26:27.932Z,7.38
2023-05-06T02:31:32.175Z,6.36
2023-05-06T02:36:34.991Z,4.38
2023-05-06T02:41:37.749Z,3.31
2023-05-06T02:46:40.579Z,2.60
2023-05-06T02:51:43.468Z,2.07
2023-05-06T02:56:46.521Z,1.68
2023-05-06T03:01:49.720Z,1.40
2023-05-06T03:06:52.520Z,1.20
2023-05-06T03:11:56.927Z,1.06
2023-05-06T03:16:59.892Z,1.04
2023-05-06T03:22:03.103Z,1.10
2023-05-06T03:27:05.942Z,1.16
2023-05-06T03:32:08.832Z,1.26
2023-05-06T03:37:11.730Z,1.38
2023-05-06T03:42:14.867Z,1.55
2023-05-06T03:47:17.781Z,1.74
2023-05-06T03:52:21.143Z,1.97
2023-05-06T03:57:24.065Z,2.23
2023-05-06T04:02:27.039Z,2.53
2023-05-06T04:07:31.273Z,2.85
2023-05-06T04:12:34.411Z,3.20
2023-05-06T04:17:37.231Z,3.54
2023-05-06T04:22:40.096Z,3.82
2023-05-06T04:27:42.881Z,4.08
2023-05-06T04:32:46.206Z,4.35
2023-05-06T04:37:49.046Z,4.61
2023-05-06T04:42:52.507Z,4.86
2023-05-06T04:47:55.526Z,5.06
2023-05-06T04:52:58.341Z,5.22
2023-05-06T04:58:01.132Z,5.37
2023-05-06T05:03:04.148Z,5.51
2023-05-06T05:08:07.075Z,5.60
2023-05-06T05:13:10.068Z,5.71
2023-05-06T05:18:13.192Z,5.87
2023-05-06T05:23:16.333Z,6.04
2023-05-06T05:28:19.155Z,6.18
2023-05-06T05:33:22.011Z,6.40
2023-05-06T05:38:24.964Z,6.66
2023-05-06T05:43:27.775Z,6.87
2023-05-06T05:48:32.800Z,7.09
2023-05-06T05:53:35.722Z,7.31
2023-05-06T05:58:38.802Z,7.48
2023-05-06T06:03:42.192Z,7.65
2023-05-06T06:08:45.243Z,7.86
2023-05-06T06:13:48.051Z,8.07
2023-05-06T06:18:51.137Z,8.19
2023-05-06T06:23:53.919Z,8.33
2023-05-06T06:28:56.737Z,8.48
2023-05-06T06:33:59.545Z,8.60
2023-05-06T06:39:02.398Z,8.78
2023-05-06T06:44:06.146Z,9.01
2023-05-06T06:49:08.956Z,9.24
2023-05-06T06:54:11.760Z,9.51
2023-05-06T06:59:14.830Z,9.71
2023-05-06T07:04:17.695Z,9.82
2023-05-06T07:09:20.620Z,9.92
2023-05-06T07:14:23.427Z,10.17
2023-05-06T07:19:26.567Z,10.43
2023-05-06T07:24:29.271Z,10.58
2023-05-06T07:29:32.189Z,10.75
2023-05-06T07:34:36.211Z,10.95
2023-05-06T07:39:39.044Z,11.23
2023-05-06T07:44:41.817Z,11.53
2023-05-06T07:49:44.673Z,11.70
2023-05-06T07:54:47.561Z,11.85
2023-05-06T07:59:51.662Z,11.99
2023-05-06T08:04:54.601Z,12.20
2023-05-06T08:09:57.922Z,12.43
2023-05-06T08:15:00.963Z,12.73
2023-05-06T08:20:04.047Z,12.92
2023-05-06T08:25:07.426Z,12.99
2023-05-06T08:30:10.933Z,13.18
2023-05-06T08:35:14.092Z,13.39
2023-05-06T08:40:22.090Z,13.54
2023-05-06T08:45:27.405Z,13.61
2023-05-06T08:50:33.462Z,13.57
2023-05-06T08:55:37.340Z,13.63
2023-05-06T09:00:40.587Z,13.73
2023-05-06T09:05:43.571Z,13.71
2023-05-06T09:10:47.470Z,13.71
2023-05-06T09:15:54.461Z,13.70
2023-05-06T09:20:59.393Z,13.68
2023-05-06T09:26:03.742Z,13.74
2023-05-06T09:31:07.132Z,13.81
2023-05-06T09:36:13.481Z,13.99
2023-05-06T09:41:21.148Z,14.18
2023-05-06T09:46:25.519Z,14.32
2023-05-06T09:51:28.696Z,14.65
2023-05-06T09:56:31.990Z,14.95
2023-05-06T10:01:37.585Z,15.14
2023-05-06T10:06:41.066Z,15.32
2023-05-06T10:11:45.569Z,15.42
2023-05-06T10:16:49.645Z,15.33
2023-05-06T10:22:04.444Z,15.26
2023-05-06T10:27:12.261Z,15.29
2023-05-06T10:32:17.467Z,15.38
2023-05-06T10:37:25.989Z,15.30
2023-05-06T10:42:34.103Z,15.13
2023-05-06T10:47:56.098Z,14.96
2023-05-06T10:52:59.314Z,14.86
2023-05-06T10:58:12.711Z,14.81
2023-05-06T11:03:23.845Z,14.83
2023-05-06T11:08:27.302Z,15.07
2023-05-06T11:13:35.153Z,15.30
2023-05-06T11:18:41.714Z,15.48
2023-05-06T11:23:54.821Z,15.65
2023-05-06T11:29:06.041Z,15.83
2023-05-06T11:34:11.447Z,15.91
2023-05-06T11:39:14.618Z,15.91
2023-05-06T11:44:25.443Z,15.79
2023-05-06T11:49:28.360Z,15.75
2023-05-06T11:54:36.986Z,15.64
2023-05-06T11:59:41.285Z,15.60
2023-05-06T12:04:50.233Z,15.61
2023-05-06T12:09:53.379Z,15.50
2023-05-06T12:14:56.721Z,15.35
2023-05-06T12:19:59.860Z,15.16
2023-05-06T12:25:14.253Z,15.07
2023-05-06T12:30:29.309Z,15.00
2023-05-06T12:35:32.711Z,14.89
2023-05-06T12:40:36.090Z,14.98
2023-05-06T12:45:39.970Z,15.15
2023-05-06T12:50:45.031Z,15.22
2023-05-06T12:55:47.840Z,15.16
2023-05-06T13:00:50.622Z,15.17
2023-05-06T13:05:53.520Z,15.18
2023-05-06T13:10:56.499Z,15.06
2023-05-06T13:15:59.532Z,14.92
2023-05-06T13:21:02.453Z,14.77
2023-05-06T13:26:06.235Z,14.64
2023-05-06T13:31:09.366Z,14.54
2023-05-06T13:36:12.259Z,14.48
2023-05-06T13:41:14.985Z,14.49
2023-05-06T13:46:17.885Z,14.57
2023-05-06T13:51:20.980Z,14.60
2023-05-06T13:56:23.817Z,14.54
2023-05-06T14:01:26.681Z,14.41
2023-05-06T14:06:29.510Z,14.48
2023-05-06T14:11:32.341Z,14.46
2023-05-06T14:16:35.272Z,14.40
2023-05-06T14:21:38.056Z,14.34
2023-05-06T14:26:41.520Z,14.29
2023-05-06T14:31:45.354Z,14.28
2023-05-06T14:36:48.164Z,14.19
2023-05-06T14:41:51.243Z,14.19
2023-05-06T14:46:54.046Z,14.19
2023-05-06T14:51:58.034Z,14.21
2023-05-06T14:57:03.181Z,14.22
2023-05-06T15:02:09.300Z,14.12
2023-05-06T15:07:12.427Z,14.01
2023-05-06T15:12:15.436Z,13.98
2023-05-06T15:17:18.287Z,13.86
2023-05-06T15:22:20.975Z,13.73
2023-05-06T15:27:23.847Z,13.65
2023-05-06T15:32:27.043Z,13.56
2023-05-06T15:37:29.840Z,13.50
2023-05-06T15:42:32.673Z,13.46
2023-05-06T15:47:35.502Z,13.40
2023-05-06T15:52:38.365Z,13.33
2023-05-06T15:57:43.235Z,13.27
2023-05-06T16:02:46.444Z,13.20
2023-05-06T16:07:49.823Z,13.16
2023-05-06T16:12:54.094Z,13.12
2023-05-06T16:17:57.092Z,13.05
2023-05-06T16:23:00.182Z,13.01
2023-05-06T16:28:03.645Z,12.98
2023-05-06T16:33:06.644Z,12.88
2023-05-06T16:38:09.449Z,12.80
2023-05-06T16:43:12.313Z,12.69
2023-05-06T16:48:16.032Z,12.58
2023-05-06T16:53:19.031Z,12.50
2023-05-06T17:03:24.827Z,12.33
2023-05-06T17:08:27.724Z,12.24
2023-05-06T17:13:30.658Z,12.15
2023-05-06T17:18:33.532Z,12.07
2023-05-06T17:23:36.449Z,11.97
2023-05-06T17:28:39.300Z,11.87
2023-05-06T17:33:42.142Z,11.79
2023-05-06T17:38:45.271Z,11.69
2023-05-06T17:43:47.997Z,11.58
2023-05-06T17:48:50.848Z,11.46
2023-05-06T17:53:57.677Z,11.33
2023-05-06T17:59:14.676Z,11.17
2023-05-06T18:04:18.620Z,11.03
2023-05-06T18:09:21.830Z,10.89
2023-05-06T18:14:24.781Z,10.76
2023-05-06T18:19:27.689Z,10.64
2023-05-06T18:24:30.996Z,10.52
2023-05-06T18:29:34.935Z,10.39
2023-05-06T18:34:37.728Z,10.28
2023-05-06T18:39:45.533Z,10.14
2023-05-06T18:44:50.481Z,10.03
2023-05-06T18:49:53.535Z,9.94
2023-05-06T18:54:56.444Z,9.87
2023-05-06T18:59:59.292Z,9.81
2023-05-06T19:05:02.183Z,9.76
2023-05-06T19:10:11.504Z,9.68
2023-05-06T19:15:14.731Z,9.59
2023-05-06T19:20:17.668Z,9.51
2023-05-06T19:25:20.978Z,9.44
2023-05-06T19:30:23.794Z,9.36
2023-05-06T19:35:26.893Z,9.27
2023-05-06T19:40:29.706Z,9.18
2023-05-06T19:45:33.886Z,9.07
2023-05-06T19:50:36.824Z,8.96
2023-05-06T19:55:39.663Z,8.85
2023-05-06T20:00:42.556Z,8.75
2023-05-06T20:05:45.433Z,8.64
2023-05-06T20:10:48.536Z,8.53
2023-05-06T20:15:51.366Z,8.42
2023-05-06T20:20:54.187Z,8.31
2023-05-06T20:25:57.199Z,8.21
2023-05-06T20:31:00.144Z,8.11
2023-05-06T20:36:04.077Z,8.01
2023-05-06T20:41:07.092Z,7.90
2023-05-06T20:46:10.484Z,7.79
2023-05-06T20:51:13.684Z,7.68
2023-05-06T20:56:22.902Z,7.58
2023-05-06T21:01:27.273Z,7.49
2023-05-06T21:06:30.384Z,7.42
2023-05-06T21:11:33.248Z,7.36
2023-05-06T21:16:36.117Z,7.30
2023-05-06T21:21:38.967Z,7.24
2023-05-06T21:26:41.866Z,7.19
2023-05-06T21:31:44.685Z,7.13
2023-05-06T21:36:47.509Z,7.07
2023-05-06T21:41:50.360Z,7.01
2023-05-06T21:46:53.208Z,6.96
2023-05-06T21:51:56.442Z,6.90
2023-05-06T21:56:59.152Z,6.87
2023-05-06T22:02:03.382Z,6.83
2023-05-06T22:07:07.185Z,6.79
2023-05-06T22:12:11.819Z,6.74
2023-05-06T22:17:15.790Z,6.68
2023-05-06T22:22:18.687Z,6.61
2023-05-06T22:27:21.563Z,6.54
2023-05-06T22:32:24.426Z,6.47
2023-05-06T22:37:27.377Z,6.39
2023-05-06T22:42:30.147Z,6.29
2023-05-06T22:47:33.030Z,6.17
2023-05-06T22:52:35.931Z,6.04
2023-05-06T22:57:38.780Z,5.90
2023-05-06T23:02:41.731Z,5.80
2023-05-06T23:07:44.649Z,5.70
2023-05-06T23:12:47.522Z,5.60
2023-05-06T23:17:50.499Z,5.51
2023-05-06T23:22:53.417Z,5.39
2023-05-06T23:27:56.319Z,5.26
2023-05-06T23:32:59.219Z,5.13
2023-05-06T23:38:02.085Z,5.00
2023-05-06T23:43:09.994Z,4.89
2023-05-06T23:48:12.904Z,4.76
2023-05-06T23:53:15.874Z,4.67
2023-05-06T23:58:18.706Z,4.57
